Time;durP1;ratioP1;P1;durP2;ratioP2;P2;SDS_P1;SDS_P2;PMS_P1;PMS_P2;Temp;Humidity;BMP_temperature;BMP_pressure;BME280_temperature;BME280_humidity;BME280_pressure;Samples;Min_cycle;Max_cycle;Signal;HPM_P1;HPM_P2
2023/06/16 00:01:05;;;;;;;3.45;3.03;;;21.00;91.90;;;;;;7388850;19;20145;-74
2023/06/16 00:03:34;;;;;;;3.65;2.78;;;20.90;92.00;;;;;;7385545;19;20149;-74
2023/06/16 00:06:12;;;;;;;3.03;2.72;;;20.90;92.30;;;;;;7388412;19;20171;-73
2023/06/16 00:08:46;;;;;;;3.42;2.53;;;20.90;92.40;;;;;;7386547;19;20142;-72
2023/06/16 00:11:17;;;;;;;4.97;2.80;;;21.00;92.30;;;;;;7385606;19;20159;-73
2023/06/16 00:13:45;;;;;;;4.15;2.55;;;21.10;92.40;;;;;;7387318;19;20165;-74
2023/06/16 00:16:13;;;;;;;2.83;2.38;;;21.00;92.40;;;;;;7385157;19;20163;-75
2023/06/16 00:18:43;;;;;;;2.70;2.38;;;21.00;92.50;;;;;;7387100;19;20150;-74
2023/06/16 00:21:19;;;;;;;3.13;2.53;;;20.90;92.40;;;;;;7386238;19;20225;-74
2023/06/16 00:23:48;;;;;;;3.03;2.30;;;20.70;93.10;;;;;;7388117;19;20151;-74
2023/06/16 00:26:15;;;;;;;3.50;2.65;;;20.70;92.80;;;;;;7386357;19;20644;-74
2023/06/16 00:28:41;;;;;;;4.13;2.38;;;20.70;93.10;;;;;;7385186;19;20257;-75
2023/06/16 00:31:06;;;;;;;4.78;2.92;;;20.60;93.50;;;;;;7384908;19;20142;-73
2023/06/16 00:33:32;;;;;;;4.00;2.88;;;20.60;93.60;;;;;;7387788;19;20146;-73
2023/06/16 00:35:59;;;;;;;3.60;2.85;;;20.60;93.60;;;;;;7384065;19;20165;-74
2023/06/16 00:38:25;;;;;;;3.90;2.80;;;20.70;94.00;;;;;;7384167;19;20138;-73
2023/06/16 00:40:51;;;;;;;4.70;2.90;;;20.70;94.40;;;;;;7386996;19;20740;-75
2023/06/16 00:43:18;;;;;;;5.80;2.90;;;20.60;94.40;;;;;;7385821;19;20155;-75
2023/06/16 00:45:44;;;;;;;4.25;3.55;;;20.60;94.60;;;;;;7386760;19;20591;-73
2023/06/16 00:48:10;;;;;;;4.28;3.60;;;20.50;95.10;;;;;;7385235;19;20139;-74
2023/06/16 00:50:36;;;;;;;6.60;3.45;;;20.10;96.30;;;;;;7386283;19;20615;-75
2023/06/16 00:53:02;;;;;;;3.65;2.85;;;20.20;96.90;;;;;;7387045;19;20134;-73
2023/06/16 00:55:29;;;;;;;5.55;3.70;;;20.20;97.40;;;;;;7384976;19;20762;-73
2023/06/16 00:57:55;;;;;;;5.57;3.67;;;20.20;97.80;;;;;;7383741;19;20150;-74
2023/06/16 01:00:21;;;;;;;5.40;3.78;;;20.30;97.90;;;;;;7386557;19;20615;-73
2023/06/16 01:02:48;;;;;;;4.63;3.45;;;20.10;98.50;;;;;;7383007;19;20613;-75
2023/06/16 01:05:17;;;;;;;4.68;3.67;;;19.90;98.80;;;;;;7384831;19;20143;-73
2023/06/16 01:08:11;;;;;;;5.47;3.88;;;20.00;98.90;;;;;;7385479;19;20139;-74
2023/06/16 01:10:45;;;;;;;4.07;3.17;;;19.90;98.90;;;;;;7383398;19;20469;-73
2023/06/16 01:13:24;;;;;;;6.07;3.55;;;20.00;98.60;;;;;;7385797;19;20174;-74
2023/06/16 01:15:52;;;;;;;4.35;3.15;;;20.10;98.60;;;;;;7386452;19;20158;-75
2023/06/16 01:18:25;;;;;;;3.95;3.13;;;20.10;98.10;;;;;;7381843;19;20525;-73
2023/06/16 01:21:02;;;;;;;3.20;2.80;;;20.20;97.90;;;;;;7386266;19;20141;-74
2023/06/16 01:24:01;;;;;;;4.75;2.95;;;20.20;97.80;;;;;;7383939;19;20138;-73
2023/06/16 01:26:31;;;;;;;5.53;3.17;;;20.10;98.00;;;;;;7387890;19;20147;-74
2023/06/16 01:29:03;;;;;;;4.05;2.90;;;19.90;99.00;;;;;;7390856;19;20146;-74
2023/06/16 01:31:31;;;;;;;3.55;2.90;;;19.90;99.10;;;;;;7391060;19;20181;-74
2023/06/16 01:33:59;;;;;;;5.07;2.67;;;19.90;99.30;;;;;;7396053;19;20198;-74
2023/06/16 01:36:28;;;;;;;4.38;3.33;;;20.00;99.20;;;;;;7391659;19;20179;-75
2023/06/16 01:38:55;;;;;;;5.35;2.92;;;19.80;99.40;;;;;;7394295;19;20521;-73
2023/06/16 01:41:21;;;;;;;5.55;3.33;;;19.80;99.80;;;;;;7393898;19;20670;-74
2023/06/16 01:43:48;;;;;;;4.15;3.00;;;19.90;99.50;;;;;;7394644;19;20181;-75
2023/06/16 01:46:14;;;;;;;4.22;2.80;;;19.70;99.70;;;;;;7398011;19;20142;-74
2023/06/16 01:48:40;;;;;;;4.18;3.30;;;19.90;99.90;;;;;;7398281;19;20134;-74
2023/06/16 01:51:06;;;;;;;4.05;2.80;;;20.00;99.90;;;;;;7398340;19;20135;-75
2023/06/16 01:53:32;;;;;;;3.63;2.95;;;20.00;99.80;;;;;;7392474;19;20122;-74
2023/06/16 01:55:58;;;;;;;3.65;3.28;;;20.00;99.90;;;;;;7387646;19;20135;-73
2023/06/16 01:58:25;;;;;;;3.60;2.80;;;19.40;99.90;;;;;;7394543;19;20126;-74
2023/06/16 02:01:07;;;;;;;4.80;3.13;;;19.30;99.90;;;;;;7391723;19;20725;-73
2023/06/16 02:03:45;;;;;;;3.30;2.53;;;19.50;99.90;;;;;;7393428;19;20157;-73
2023/06/16 02:06:21;;;;;;;4.13;2.80;;;19.50;99.90;;;;;;7389474;19;20299;-75
2023/06/16 02:08:49;;;;;;;4.03;3.00;;;19.40;99.90;;;;;;7390409;19;20185;-73
2023/06/16 02:11:18;;;;;;;3.65;2.78;;;19.60;99.90;;;;;;7388437;19;20150;-73
2023/06/16 02:13:47;;;;;;;3.97;2.72;;;19.40;99.90;;;;;;7391033;19;20154;-74
2023/06/16 02:16:14;;;;;;;3.90;2.97;;;19.40;99.90;;;;;;7388688;19;20186;-73
2023/06/16 02:18:40;;;;;;;3.80;3.13;;;19.20;99.90;;;;;;7388313;19;20149;-74
2023/06/16 02:21:05;;;;;;;4.95;3.35;;;19.20;99.90;;;;;;7388591;19;20555;-73
2023/06/16 02:23:31;;;;;;;3.92;2.88;;;19.30;99.90;;;;;;7389765;19;20540;-74
2023/06/16 02:25:59;;;;;;;5.72;3.60;;;19.20;99.90;;;;;;7391073;19;20138;-73
2023/06/16 02:28:26;;;;;;;5.93;3.60;;;19.40;99.90;;;;;;7390354;19;20130;-74
2023/06/16 02:30:52;;;;;;;3.80;3.35;;;19.50;99.90;;;;;;7391079;19;20126;-74
2023/06/16 02:33:17;;;;;;;6.00;3.25;;;19.60;99.90;;;;;;7387656;19;20125;-74
2023/06/16 02:35:43;;;;;;;4.15;3.53;;;19.60;99.90;;;;;;7389225;19;20161;-74
2023/06/16 02:38:09;;;;;;;5.38;3.25;;;19.50;99.90;;;;;;7386895;19;20123;-73
2023/06/16 02:40:35;;;;;;;4.38;3.33;;;19.40;99.90;;;;;;7390643;19;20601;-73
2023/06/16 02:43:01;;;;;;;5.18;3.28;;;19.40;99.90;;;;;;7385460;19;20183;-74
2023/06/16 02:45:26;;;;;;;4.15;3.35;;;19.40;99.90;;;;;;7389572;19;20138;-73
2023/06/16 02:47:52;;;;;;;4.90;3.60;;;19.40;99.90;;;;;;7387882;19;20141;-73
2023/06/16 02:50:18;;;;;;;3.97;3.38;;;19.30;99.90;;;;;;7389415;19;20134;-74
2023/06/16 02:52:44;;;;;;;4.35;3.35;;;19.30;99.90;;;;;;7389498;19;20158;-74
2023/06/16 02:55:10;;;;;;;5.03;3.60;;;19.40;99.90;;;;;;7389271;19;20139;-74
2023/06/16 02:57:36;;;;;;;5.68;3.53;;;19.40;99.90;;;;;;7384543;19;20133;-74
2023/06/16 03:00:04;;;;;;;5.03;3.53;;;19.50;99.90;;;;;;7388943;19;20137;-73
2023/06/16 03:02:30;;;;;;;5.68;3.88;;;19.50;99.90;;;;;;7389591;19;20198;-73
2023/06/16 03:04:55;;;;;;;5.97;3.60;;;19.50;99.90;;;;;;7390333;19;20646;-72
2023/06/16 03:07:22;;;;;;;4.50;3.45;;;19.40;99.90;;;;;;7386668;19;20611;-73
2023/06/16 03:09:48;;;;;;;5.93;3.92;;;19.30;99.90;;;;;;7390504;19;20226;-74
2023/06/16 03:12:14;;;;;;;4.55;4.00;;;19.30;99.90;;;;;;7386977;19;20156;-73
2023/06/16 03:14:40;;;;;;;6.20;3.92;;;19.40;99.90;;;;;;7386531;19;20138;-73
2023/06/16 03:17:06;;;;;;;8.50;3.88;;;19.30;99.90;;;;;;7387958;19;20139;-73
2023/06/16 03:19:32;;;;;;;4.50;3.33;;;19.30;99.90;;;;;;7388636;19;20142;-73
2023/06/16 03:21:58;;;;;;;4.22;3.58;;;19.30;99.90;;;;;;7386355;19;21102;-73
2023/06/16 03:24:24;;;;;;;5.05;3.53;;;19.30;99.90;;;;;;7389792;19;20139;-72
2023/06/16 03:26:51;;;;;;;4.18;3.45;;;19.30;99.90;;;;;;7389339;19;20157;-73
2023/06/16 03:29:17;;;;;;;3.97;3.30;;;19.30;99.90;;;;;;7390026;19;20159;-73
2023/06/16 03:31:43;;;;;;;4.30;3.40;;;19.40;99.90;;;;;;7387262;19;20134;-73
2023/06/16 03:34:09;;;;;;;6.22;3.47;;;19.40;99.90;;;;;;7387740;19;20158;-73
2023/06/16 03:36:39;;;;;;;6.90;3.80;;;19.40;99.90;;;;;;7389048;19;20144;-73
2023/06/16 03:39:05;;;;;;;5.93;3.25;;;19.30;99.90;;;;;;7386843;19;20527;-73
2023/06/16 03:41:35;;;;;;;5.03;3.13;;;19.30;99.90;;;;;;7386642;19;20131;-74
2023/06/16 03:44:01;;;;;;;3.55;2.85;;;19.30;99.90;;;;;;7384885;19;20174;-73
2023/06/16 03:46:31;;;;;;;4.72;3.20;;;19.30;99.90;;;;;;7385841;19;20143;-72
2023/06/16 03:48:57;;;;;;;5.80;3.15;;;19.20;99.90;;;;;;7386894;19;20161;-74
2023/06/16 03:51:24;;;;;;;7.20;4.60;;;19.20;99.90;;;;;;7385953;19;20155;-74
2023/06/16 03:53:51;;;;;;;4.53;3.00;;;19.30;99.90;;;;;;7388058;19;20134;-74
2023/06/16 03:56:17;;;;;;;4.15;2.97;;;19.30;99.90;;;;;;7390065;19;20491;-74
2023/06/16 03:58:43;;;;;;;3.97;2.97;;;19.20;99.90;;;;;;7382869;19;20138;-73
2023/06/16 04:01:09;;;;;;;5.28;3.00;;;19.10;99.90;;;;;;7386840;19;20141;-73
2023/06/16 04:03:35;;;;;;;2.78;2.35;;;19.20;99.90;;;;;;7387707;19;20130;-73
2023/06/16 04:06:01;;;;;;;3.80;3.03;;;19.20;99.90;;;;;;7385641;19;20191;-72
2023/06/16 04:08:27;;;;;;;4.82;3.35;;;19.20;99.90;;;;;;7386119;19;20154;-73
2023/06/16 04:10:58;;;;;;;4.95;2.97;;;19.20;99.90;;;;;;7387755;19;20465;-73
2023/06/16 04:13:27;;;;;;;5.10;2.90;;;19.30;99.90;;;;;;7387415;19;20174;-73
2023/06/16 04:15:53;;;;;;;3.75;3.10;;;19.30;99.90;;;;;;7386770;19;20146;-72
2023/06/16 04:18:18;;;;;;;4.07;2.67;;;19.30;99.90;;;;;;7383332;19;20612;-73
2023/06/16 04:20:44;;;;;;;5.18;2.80;;;19.40;99.90;;;;;;7388024;19;20142;-74
2023/06/16 04:23:10;;;;;;;3.13;2.55;;;19.30;99.90;;;;;;7386145;19;20606;-73
2023/06/16 04:25:37;;;;;;;3.85;3.00;;;19.30;99.90;;;;;;7388091;19;20141;-73
2023/06/16 04:28:05;;;;;;;3.97;2.50;;;19.30;99.90;;;;;;7386070;19;20137;-73
2023/06/16 04:30:36;;;;;;;7.47;3.17;;;19.30;99.90;;;;;;7384324;19;20494;-73
2023/06/16 04:33:02;;;;;;;4.88;2.83;;;19.30;99.90;;;;;;7386608;19;20134;-73
2023/06/16 04:35:31;;;;;;;4.22;3.03;;;19.20;99.90;;;;;;7385969;19;20146;-73
2023/06/16 04:37:58;;;;;;;4.28;3.22;;;18.90;99.90;;;;;;7385311;19;20529;-73
2023/06/16 04:40:25;;;;;;;5.75;3.50;;;19.10;99.90;;;;;;7385710;19;20148;-74
2023/06/16 04:42:51;;;;;;;6.20;3.25;;;19.20;99.90;;;;;;7383532;19;20164;-73
2023/06/16 04:45:17;;;;;;;4.43;3.20;;;19.30;99.90;;;;;;7385096;19;20517;-73
2023/06/16 04:47:44;;;;;;;5.60;3.50;;;19.20;99.90;;;;;;7384162;19;20929;-74
2023/06/16 04:50:10;;;;;;;6.63;3.70;;;19.20;99.90;;;;;;7386299;19;20475;-76
2023/06/16 04:52:39;;;;;;;11.68;3.83;;;19.40;99.90;;;;;;7386080;19;20138;-73
2023/06/16 04:55:06;;;;;;;7.65;4.15;;;19.50;99.90;;;;;;7383410;19;20138;-73
2023/06/16 04:57:33;;;;;;;5.97;4.00;;;19.50;99.90;;;;;;7384010;19;20149;-74
2023/06/16 05:00:00;;;;;;;6.47;4.10;;;19.50;99.90;;;;;;7388780;19;20130;-74
2023/06/16 05:02:26;;;;;;;6.55;4.35;;;19.50;99.90;;;;;;7389886;19;20157;-73
2023/06/16 05:04:53;;;;;;;7.10;3.50;;;19.20;99.90;;;;;;7390597;19;20131;-75
2023/06/16 05:07:19;;;;;;;5.72;3.40;;;19.40;99.90;;;;;;7388423;19;20134;-76
2023/06/16 05:09:45;;;;;;;4.93;3.70;;;19.40;99.90;;;;;;7389243;19;20135;-76
2023/06/16 05:12:11;;;;;;;4.50;3.15;;;19.40;99.90;;;;;;7388161;19;20134;-79
2023/06/16 05:14:37;;;;;;;4.38;3.00;;;19.50;99.90;;;;;;7387881;19;20559;-78
2023/06/16 05:17:03;;;;;;;5.55;2.70;;;19.60;99.90;;;;;;7388268;19;20123;-78
2023/06/16 05:19:31;;;;;;;5.70;2.90;;;19.30;99.90;;;;;;7390667;19;20130;-79
2023/06/16 05:21:57;;;;;;;5.18;3.88;;;19.40;99.90;;;;;;7387377;19;20554;-77
2023/06/16 05:24:23;;;;;;;5.50;4.00;;;19.60;99.90;;;;;;7391481;19;20142;-78
2023/06/16 05:26:49;;;;;;;6.93;4.38;;;19.70;99.90;;;;;;7389069;19;20602;-77
2023/06/16 05:29:15;;;;;;;7.75;3.72;;;19.60;99.90;;;;;;7390597;19;20162;-78
2023/06/16 05:31:41;;;;;;;5.70;4.25;;;19.50;99.90;;;;;;7388315;19;20206;-77
2023/06/16 05:34:07;;;;;;;8.15;4.25;;;19.40;99.90;;;;;;7392004;19;20475;-76
2023/06/16 05:36:35;;;;;;;6.07;4.07;;;19.40;99.90;;;;;;7389092;19;20384;-77
2023/06/16 05:39:03;;;;;;;5.30;4.40;;;19.40;99.90;;;;;;7389891;19;20414;-79
2023/06/16 05:41:29;;;;;;;5.88;4.10;;;19.40;99.90;;;;;;7391557;19;20153;-77
2023/06/16 05:43:55;;;;;;;5.68;3.72;;;19.40;99.90;;;;;;7387299;19;20205;-75
2023/06/16 05:46:21;;;;;;;5.97;3.95;;;19.50;99.90;;;;;;7387035;19;20482;-75
2023/06/16 05:48:47;;;;;;;5.78;4.60;;;19.70;99.90;;;;;;7383246;19;20150;-74
2023/06/16 05:51:14;;;;;;;5.05;3.97;;;19.60;99.90;;;;;;7379898;19;20516;-75
2023/06/16 05:53:40;;;;;;;6.88;4.25;;;19.70;99.90;;;;;;7387783;19;20134;-75
2023/06/16 05:56:06;;;;;;;4.35;3.65;;;19.60;99.90;;;;;;7387905;19;20159;-75
2023/06/16 05:58:38;;;;;;;7.38;4.47;;;19.60;99.90;;;;;;7388218;19;20130;-75
2023/06/16 06:01:06;;;;;;;5.60;4.63;;;19.70;99.90;;;;;;7389107;19;20130;-76
2023/06/16 06:03:32;;;;;;;7.22;4.60;;;19.70;99.90;;;;;;7388814;19;20139;-74
2023/06/16 06:05:58;;;;;;;6.18;5.25;;;19.80;99.90;;;;;;7388571;19;20161;-75
2023/06/16 06:08:27;;;;;;;6.28;4.70;;;19.80;99.90;;;;;;7389297;19;20134;-75
2023/06/16 06:10:56;;;;;;;8.43;4.57;;;20.00;99.90;;;;;;7391435;19;20135;-75
2023/06/16 06:13:22;;;;;;;5.32;3.83;;;20.60;99.90;;;;;;7388548;19;20473;-75
2023/06/16 06:15:48;;;;;;;6.97;3.63;;;22.30;99.90;;;;;;7389336;19;20137;-75
2023/06/16 06:18:14;;;;;;;5.05;4.30;;;24.10;97.00;;;;;;7388533;19;20134;-75
2023/06/16 06:20:41;;;;;;;7.30;4.10;;;25.10;94.40;;;;;;7386146;19;20135;-75
2023/06/16 06:23:07;;;;;;;6.25;4.03;;;25.50;93.30;;;;;;7387310;19;20682;-76
2023/06/16 06:25:33;;;;;;;6.68;4.10;;;26.10;92.10;;;;;;7385985;19;20139;-75
2023/06/16 06:27:59;;;;;;;6.53;4.13;;;26.80;91.00;;;;;;7389962;19;20131;-75
2023/06/16 06:30:27;;;;;;;5.47;4.13;;;27.50;89.00;;;;;;7387290;19;20496;-75
2023/06/16 06:32:53;;;;;;;7.07;3.33;;;27.90;86.70;;;;;;7388096;19;20162;-76
2023/06/16 06:35:19;;;;;;;6.38;3.83;;;28.50;84.00;;;;;;7386715;19;20571;-75
2023/06/16 06:37:45;;;;;;;5.80;4.22;;;28.90;81.10;;;;;;7386624;19;20940;-74
2023/06/16 06:40:11;;;;;;;5.85;3.55;;;28.90;80.30;;;;;;7386992;19;20135;-75
2023/06/16 06:42:36;;;;;;;4.85;3.60;;;29.00;79.70;;;;;;7385699;19;20540;-75
2023/06/16 06:45:03;;;;;;;7.03;3.80;;;29.30;79.00;;;;;;7389155;19;20138;-75
2023/06/16 06:47:28;;;;;;;8.10;3.78;;;29.60;78.20;;;;;;7384313;19;20542;-76
2023/06/16 06:49:54;;;;;;;5.95;3.90;;;29.80;77.50;;;;;;7386829;19;20138;-75
2023/06/16 06:52:20;;;;;;;4.20;2.92;;;30.60;74.90;;;;;;7386911;19;20138;-76
2023/06/16 06:54:49;;;;;;;4.78;3.55;;;30.50;73.70;;;;;;7388932;19;20138;-75
2023/06/16 06:57:15;;;;;;;5.53;3.55;;;30.60;74.90;;;;;;7387149;19;20142;-76
2023/06/16 06:59:42;;;;;;;5.28;3.75;;;31.40;72.20;;;;;;7389510;19;20176;-76
2023/06/16 07:02:08;;;;;;;4.30;3.58;;;31.50;70.70;;;;;;7386218;19;20146;-76
2023/06/16 07:04:35;;;;;;;6.45;4.07;;;30.80;70.90;;;;;;7389252;19;20143;-76
2023/06/16 07:07:02;;;;;;;5.85;3.85;;;30.30;71.90;;;;;;7385118;19;20154;-75
2023/06/16 07:09:27;;;;;;;6.50;4.03;;;29.70;72.90;;;;;;7389275;19;20151;-75
2023/06/16 07:11:53;;;;;;;8.48;4.15;;;29.00;73.80;;;;;;7388566;19;20137;-75
2023/06/16 07:14:19;;;;;;;7.47;3.95;;;28.40;74.90;;;;;;7388811;19;20139;-74
2023/06/16 07:16:45;;;;;;;4.50;3.67;;;28.40;74.90;;;;;;7386294;19;20131;-76
2023/06/16 07:19:13;;;;;;;4.90;3.90;;;28.10;75.80;;;;;;7387242;19;20152;-76
2023/06/16 07:21:39;;;;;;;4.60;3.75;;;27.60;76.60;;;;;;7388004;19;20134;-75
2023/06/16 07:24:06;;;;;;;7.07;3.85;;;27.30;77.40;;;;;;7383821;19;20134;-75
2023/06/16 07:26:32;;;;;;;5.18;3.25;;;27.40;78.20;;;;;;7388780;19;20138;-76
2023/06/16 07:28:59;;;;;;;5.78;4.00;;;27.90;77.00;;;;;;7388295;19;20610;-75
2023/06/16 07:31:26;;;;;;;5.88;3.17;;;28.10;76.00;;;;;;7386533;19;20202;-75
2023/06/16 07:33:52;;;;;;;8.15;5.38;;;27.90;75.80;;;;;;7386705;19;20188;-74
2023/06/16 07:36:18;;;;;;;4.20;3.33;;;28.10;76.20;;;;;;7385364;19;20138;-75
2023/06/16 07:38:44;;;;;;;5.90;3.35;;;28.00;75.80;;;;;;7384933;19;20487;-75
2023/06/16 07:41:10;;;;;;;6.30;3.40;;;28.00;75.80;;;;;;7386217;19;20153;-77
2023/06/16 07:43:36;;;;;;;5.32;3.47;;;27.80;75.60;;;;;;7384519;19;20146;-77
2023/06/16 07:46:02;;;;;;;6.03;3.55;;;27.70;75.30;;;;;;7388514;19;20144;-77
2023/06/16 07:48:27;;;;;;;4.13;3.65;;;27.70;75.70;;;;;;7388702;19;20166;-77
2023/06/16 07:50:53;;;;;;;5.43;3.53;;;27.90;75.50;;;;;;7382514;19;20399;-76
2023/06/16 07:53:22;;;;;;;5.63;3.72;;;28.40;74.80;;;;;;7385782;19;20186;-77
2023/06/16 07:55:48;;;;;;;5.57;4.03;;;28.80;74.20;;;;;;7384075;19;20399;-80
2023/06/16 07:58:14;;;;;;;4.75;3.20;;;29.00;73.50;;;;;;7386023;19;20217;-75
2023/06/16 08:00:40;;;;;;;4.20;3.38;;;28.90;72.70;;;;;;7385291;19;20487;-79
2023/06/16 08:03:06;;;;;;;5.13;3.20;;;28.70;72.30;;;;;;7388571;19;20134;-79
2023/06/16 08:05:32;;;;;;;4.20;3.25;;;28.30;72.90;;;;;;7384999;19;20146;-79
2023/06/16 08:07:58;;;;;;;9.07;3.78;;;28.20;72.80;;;;;;7388860;19;20152;-76
2023/06/16 08:10:25;;;;;;;3.83;3.38;;;28.70;72.20;;;;;;7384483;19;20624;-75
2023/06/16 08:12:51;;;;;;;3.50;2.70;;;29.00;71.00;;;;;;7387189;19;20134;-76
2023/06/16 08:15:18;;;;;;;4.55;3.25;;;28.90;70.20;;;;;;7386245;19;20145;-75
2023/06/16 08:17:45;;;;;;;4.03;2.88;;;28.70;69.50;;;;;;7379607;19;20135;-75
2023/06/16 08:20:14;;;;;;;3.40;3.08;;;28.60;69.50;;;;;;7383513;19;20911;-75
2023/06/16 08:22:39;;;;;;;5.20;2.60;;;28.60;69.30;;;;;;7385905;19;20142;-74
2023/06/16 08:25:06;;;;;;;3.60;2.90;;;28.30;65.30;;;;;;7385889;19;20202;-75
2023/06/16 08:27:32;;;;;;;3.35;2.33;;;28.00;65.60;;;;;;7384007;19;20959;-74
2023/06/16 08:29:58;;;;;;;5.32;4.15;;;27.90;63.50;;;;;;7378428;19;20171;-75
2023/06/16 08:32:23;;;;;;;4.75;4.03;;;28.20;63.80;;;;;;7379972;19;20135;-75
2023/06/16 08:34:49;;;;;;;3.80;3.17;;;28.60;62.00;;;;;;7381565;19;20596;-73
2023/06/16 08:37:15;;;;;;;2.97;2.67;;;28.90;63.80;;;;;;7382083;19;20140;-74
2023/06/16 08:39:45;;;;;;;3.05;2.58;;;29.00;61.50;;;;;;7383310;19;20138;-74
2023/06/16 08:42:12;;;;;;;3.17;2.40;;;28.70;60.80;;;;;;7384429;19;20584;-74
2023/06/16 08:44:39;;;;;;;4.07;2.47;;;28.10;59.90;;;;;;7387897;19;20142;-74
2023/06/16 08:47:08;;;;;;;4.90;2.42;;;27.90;60.30;;;;;;7386511;19;20165;-74
2023/06/16 08:49:33;;;;;;;4.47;2.38;;;27.70;60.10;;;;;;7386464;19;20131;-74
2023/06/16 08:52:02;;;;;;;3.78;2.60;;;27.60;61.80;;;;;;7384974;19;20222;-74
2023/06/16 08:54:34;;;;;;;3.97;2.53;;;27.80;62.00;;;;;;7389171;19;20138;-73
2023/06/16 08:57:03;;;;;;;4.03;2.75;;;27.90;61.00;;;;;;7386991;19;20225;-74
2023/06/16 08:59:30;;;;;;;3.38;2.25;;;27.90;60.20;;;;;;7387450;19;20153;-73
2023/06/16 09:01:59;;;;;;;3.88;2.38;;;27.40;58.80;;;;;;7388850;19;20134;-74
2023/06/16 09:04:25;;;;;;;3.92;2.20;;;27.30;58.20;;;;;;7387758;19;20182;-75
2023/06/16 09:06:56;;;;;;;4.65;2.28;;;27.20;57.70;;;;;;7394387;19;20131;-75
2023/06/16 09:09:22;;;;;;;5.75;2.40;;;27.30;58.10;;;;;;7393453;19;20182;-76
2023/06/16 09:12:08;;;;;;;5.22;2.40;;;27.00;58.50;;;;;;7398571;19;20145;-75
2023/06/16 09:14:37;;;;;;;3.10;2.30;;;26.80;58.60;;;;;;7397726;19;20139;-75
2023/06/16 09:17:07;;;;;;;3.30;2.58;;;26.50;58.80;;;;;;7396157;19;20206;-74
2023/06/16 09:19:41;;;;;;;3.17;2.40;;;26.10;59.80;;;;;;7397947;19;20157;-76
2023/06/16 09:22:09;;;;;;;3.35;2.35;;;26.00;59.90;;;;;;7398222;19;20147;-75
2023/06/16 09:24:35;;;;;;;3.92;2.50;;;26.10;60.50;;;;;;7400089;19;20134;-75
2023/06/16 09:27:03;;;;;;;4.22;3.20;;;26.20;59.90;;;;;;7395740;19;20134;-75
2023/06/16 09:29:30;;;;;;;3.38;2.33;;;26.50;61.80;;;;;;7392017;19;20694;-75
2023/06/16 09:32:09;;;;;;;5.18;2.78;;;26.70;61.70;;;;;;7383028;19;20234;-74
2023/06/16 09:34:36;;;;;;;3.05;2.58;;;26.80;59.20;;;;;;7381645;19;20141;-76
2023/06/16 09:37:06;;;;;;;3.03;2.20;;;26.60;59.50;;;;;;7385520;19;20127;-76
2023/06/16 09:39:32;;;;;;;3.33;2.50;;;26.80;62.30;;;;;;7385823;19;20476;-77
2023/06/16 09:41:58;;;;;;;4.47;2.35;;;27.10;62.00;;;;;;7383535;19;20594;-75
2023/06/16 09:44:26;;;;;;;3.83;2.63;;;27.10;59.20;;;;;;7382582;19;20156;-79
2023/06/16 09:46:53;;;;;;;2.75;2.40;;;26.80;59.50;;;;;;7386173;19;20173;-76
2023/06/16 09:49:20;;;;;;;3.53;2.55;;;26.60;60.20;;;;;;7390980;19;20285;-77
2023/06/16 09:51:52;;;;;;;4.22;3.17;;;26.40;60.70;;;;;;7390934;19;20143;-77
2023/06/16 09:54:23;;;;;;;3.88;2.72;;;26.40;61.50;;;;;;7390013;19;21040;-77
2023/06/16 09:56:49;;;;;;;4.13;2.30;;;26.40;60.40;;;;;;7390173;19;20143;-76
2023/06/16 09:59:16;;;;;;;3.67;2.72;;;26.20;60.00;;;;;;7387420;19;20610;-76
2023/06/16 10:01:43;;;;;;;3.00;2.35;;;26.30;59.90;;;;;;7389299;19;20198;-77
2023/06/16 10:04:15;;;;;;;4.03;2.60;;;26.20;59.20;;;;;;7388809;19;20146;-76
2023/06/16 10:07:04;;;;;;;2.47;2.05;;;26.10;59.60;;;;;;7390536;19;20150;-77
2023/06/16 10:09:44;;;;;;;4.35;2.20;;;26.30;59.60;;;;;;7391021;19;20139;-76
2023/06/16 10:12:12;;;;;;;2.97;2.35;;;26.40;60.00;;;;;;7390374;19;20163;-77
2023/06/16 10:14:41;;;;;;;3.25;2.72;;;26.40;60.80;;;;;;7390649;19;20150;-77
2023/06/16 10:17:10;;;;;;;3.47;2.20;;;26.40;60.40;;;;;;7387318;19;20138;-76
2023/06/16 10:19:38;;;;;;;4.45;2.40;;;26.10;59.60;;;;;;7391707;19;20254;-76
2023/06/16 10:22:04;;;;;;;3.90;2.35;;;26.00;59.30;;;;;;7388207;19;20232;-76
2023/06/16 10:24:36;;;;;;;5.65;2.92;;;25.90;60.30;;;;;;7389252;19;20130;-77
2023/06/16 10:27:02;;;;;;;4.50;2.50;;;26.00;60.20;;;;;;7388285;19;20123;-77
2023/06/16 10:29:29;;;;;;;2.40;2.20;;;25.80;60.50;;;;;;7390947;19;20543;-77
2023/06/16 10:32:10;;;;;;;5.35;2.83;;;25.70;61.70;;;;;;7387316;19;20169;-77
2023/06/16 10:34:49;;;;;;;3.90;2.75;;;26.00;63.40;;;;;;7387973;19;20603;-77
2023/06/16 10:37:16;;;;;;;2.78;2.22;;;26.40;61.70;;;;;;7389195;19;20172;-77
2023/06/16 10:39:43;;;;;;;3.60;2.30;;;26.50;61.80;;;;;;7388085;19;20169;-77
2023/06/16 10:42:14;;;;;;;5.63;2.95;;;26.60;61.70;;;;;;7388939;19;20150;-76
2023/06/16 10:44:40;;;;;;;4.35;2.53;;;26.70;61.60;;;;;;7387248;19;20179;-77
2023/06/16 10:47:12;;;;;;;4.18;2.47;;;26.70;60.20;;;;;;7391438;19;20176;-77
2023/06/16 10:49:57;;;;;;;5.25;4.50;;;26.80;60.10;;;;;;7387777;19;20591;-78
2023/06/16 10:52:28;;;;;;;3.17;2.22;;;27.00;60.00;;;;;;7388573;19;20525;-78
2023/06/16 10:55:14;;;;;;;3.17;2.53;;;26.90;59.40;;;;;;7388822;19;20135;-77
2023/06/16 10:57:42;;;;;;;3.03;2.22;;;26.60;59.50;;;;;;7386660;19;20143;-78
2023/06/16 11:00:12;;;;;;;2.85;2.60;;;26.30;60.60;;;;;;7390112;19;20142;-78
2023/06/16 11:02:52;;;;;;;4.43;2.40;;;26.30;60.00;;;;;;7387108;19;20484;-79
2023/06/16 11:05:22;;;;;;;2.83;2.45;;;26.10;60.20;;;;;;7388801;19;20170;-78
2023/06/16 11:07:58;;;;;;;3.50;2.42;;;26.10;59.80;;;;;;7390623;19;20143;-79
2023/06/16 11:10:24;;;;;;;4.03;2.70;;;26.30;58.50;;;;;;7388850;19;20134;-76
2023/06/16 11:12:50;;;;;;;2.70;2.45;;;26.30;57.50;;;;;;7387944;19;20150;-76
2023/06/16 11:15:18;;;;;;;3.10;2.70;;;26.30;59.20;;;;;;7388956;19;20260;-78
2023/06/16 11:17:48;;;;;;;2.92;2.50;;;26.50;57.70;;;;;;7383627;19;20138;-77
2023/06/16 11:20:14;;;;;;;3.15;2.28;;;26.20;58.40;;;;;;7386064;19;20226;-75
2023/06/16 11:22:40;;;;;;;4.10;2.38;;;26.00;59.30;;;;;;7393475;19;20138;-74
2023/06/16 11:25:08;;;;;;;2.80;2.35;;;26.00;59.40;;;;;;7382957;19;20147;-76
2023/06/16 11:27:33;;;;;;;3.15;2.25;;;26.10;59.50;;;;;;7383747;19;20353;-76
2023/06/16 11:30:03;;;;;;;2.80;2.25;;;26.20;59.30;;;;;;7384173;19;20135;-75
2023/06/16 11:32:42;;;;;;;2.97;2.35;;;26.20;58.90;;;;;;7385592;19;20142;-75
2023/06/16 11:35:31;;;;;;;3.78;2.95;;;26.20;58.80;;;;;;7374869;19;20646;-75
2023/06/16 11:37:56;;;;;;;3.25;2.80;;;26.40;58.20;;;;;;7381397;19;20150;-75
2023/06/16 11:40:31;;;;;;;2.67;2.33;;;26.50;57.70;;;;;;7384074;19;20183;-78
2023/06/16 11:42:59;;;;;;;3.20;2.90;;;26.50;57.80;;;;;;7386468;19;20138;-78
2023/06/16 11:45:33;;;;;;;2.90;2.28;;;26.50;58.30;;;;;;7387814;19;20135;-77
2023/06/16 11:48:01;;;;;;;4.35;2.20;;;26.40;58.10;;;;;;7385506;19;20138;-78
2023/06/16 11:50:27;;;;;;;4.35;2.72;;;26.40;58.20;;;;;;7387365;19;20146;-77
2023/06/16 11:52:55;;;;;;;6.13;2.70;;;26.40;58.30;;;;;;7381167;19;20156;-77
2023/06/16 11:55:22;;;;;;;2.65;2.30;;;26.40;57.80;;;;;;7386918;19;20543;-77
2023/06/16 11:57:48;;;;;;;5.45;2.83;;;26.50;58.50;;;;;;7383495;19;20145;-73
2023/06/16 12:00:15;;;;;;;3.40;2.58;;;26.70;58.80;;;;;;7388313;19;20253;-74
2023/06/16 12:02:47;;;;;;;4.07;2.35;;;26.80;57.40;;;;;;7386987;19;20122;-74
2023/06/16 12:05:25;;;;;;;3.15;2.72;;;26.70;57.00;;;;;;7385588;19;20169;-76
2023/06/16 12:07:51;;;;;;;3.30;2.38;;;26.60;57.40;;;;;;7387216;19;20473;-75
2023/06/16 12:10:17;;;;;;;3.22;2.55;;;26.60;57.50;;;;;;7383288;19;20161;-75
2023/06/16 12:12:44;;;;;;;2.60;2.40;;;26.50;57.60;;;;;;7388392;19;20139;-76
2023/06/16 12:15:17;;;;;;;3.20;2.25;;;26.40;58.00;;;;;;7386593;19;20173;-74
2023/06/16 12:17:43;;;;;;;3.25;2.60;;;26.50;56.90;;;;;;7387269;19;20138;-76
2023/06/16 12:20:11;;;;;;;5.63;2.70;;;26.40;58.00;;;;;;7383662;19;20203;-75
2023/06/16 12:22:38;;;;;;;2.97;2.58;;;26.50;57.80;;;;;;7388233;19;20603;-74
2023/06/16 12:25:26;;;;;;;6.22;2.85;;;26.70;58.00;;;;;;7386153;19;20491;-76
2023/06/16 12:27:56;;;;;;;3.83;2.80;;;26.80;57.00;;;;;;7387907;19;20575;-76
2023/06/16 12:30:32;;;;;;;3.75;3.10;;;26.60;57.10;;;;;;7386748;19;20138;-77
2023/06/16 12:32:57;;;;;;;4.97;2.80;;;26.60;57.80;;;;;;7386190;19;21356;-76
2023/06/16 12:35:26;;;;;;;4.80;3.00;;;26.50;57.70;;;;;;7388740;19;20142;-76
2023/06/16 12:37:58;;;;;;;4.43;2.78;;;26.50;57.80;;;;;;7384232;19;20523;-75
2023/06/16 12:40:33;;;;;;;3.42;2.58;;;26.40;58.30;;;;;;7387133;19;20134;-75
2023/06/16 12:43:22;;;;;;;4.95;3.13;;;26.50;57.70;;;;;;7386126;19;20153;-75
2023/06/16 12:45:48;;;;;;;2.80;2.50;;;26.50;58.10;;;;;;7383894;19;20146;-77
2023/06/16 12:48:13;;;;;;;4.78;3.50;;;26.70;57.90;;;;;;7387028;19;20598;-76
2023/06/16 12:50:39;;;;;;;5.63;4.35;;;26.70;57.80;;;;;;7385566;19;20158;-76
2023/06/16 12:53:05;;;;;;;3.97;2.92;;;26.70;58.70;;;;;;7387887;19;20123;-74